Time;durP1;ratioP1;P1;durP2;ratioP2;P2;SDS_P1;SDS_P2;PMS_P1;PMS_P2;Temp;Humidity;BMP_temperature;BMP_pressure;BME280_temperature;BME280_humidity;BME280_pressure;Samples;Min_cycle;Max_cycle;Signal;HPM_P1;HPM_P2
2023/05/22 00:02:09;;;;;;;;;;;13.20;99.90;;;;;;5094285;28;20061;-65
2023/05/22 00:04:36;;;;;;;;;;;13.20;99.90;;;;;;5104110;28;19916;-62
2023/05/22 00:07:02;;;;;;;;;;;13.30;99.90;;;;;;5109783;28;19908;-66
2023/05/22 00:09:29;;;;;;;;;;;13.40;99.90;;;;;;5094396;28;19911;-65
2023/05/22 00:11:56;;;;;;;;;;;13.40;99.90;;;;;;5105158;28;19918;-66
2023/05/22 00:14:22;;;;;;;;;;;13.40;99.90;;;;;;5109822;28;19941;-64
2023/05/22 00:16:49;;;;;;;;;;;13.60;99.90;;;;;;5096156;28;20416;-64
2023/05/22 00:19:15;;;;;;;;;;;13.60;99.90;;;;;;5110762;28;19912;-64
2023/05/22 00:21:42;;;;;;;;;;;13.70;99.90;;;;;;5107518;28;19908;-63
2023/05/22 00:24:09;;;;;;;;;;;13.80;99.90;;;;;;5104249;28;19937;-66
2023/05/22 00:26:36;;;;;;;;;;;13.80;99.90;;;;;;5099609;28;19912;-65
2023/05/22 00:29:04;;;;;;;;;;;13.80;99.90;;;;;;5107175;28;19943;-65
2023/05/22 00:31:31;;;;;;;;;;;13.90;99.90;;;;;;5099934;28;20006;-65
2023/05/22 00:33:58;;;;;;;;;;;13.90;99.90;;;;;;5101247;28;20348;-67
2023/05/22 00:36:25;;;;;;;;;;;14.00;99.90;;;;;;5103053;28;19965;-64
2023/05/22 00:38:51;;;;;;;;;;;14.00;99.80;;;;;;5109398;28;19907;-63
2023/05/22 00:41:18;;;;;;;;;;;14.10;99.90;;;;;;5098809;28;19920;-67
2023/05/22 00:43:45;;;;;;;;;;;14.10;99.90;;;;;;5099789;28;20323;-66
2023/05/22 00:46:20;;;;;;;;;;;14.20;99.60;;;;;;5110751;28;20201;-65
2023/05/22 00:48:47;;;;;;;;;;;14.30;99.70;;;;;;5112953;28;19911;-67
2023/05/22 00:51:14;;;;;;;;;;;14.40;99.70;;;;;;5112753;28;20479;-64
2023/05/22 00:53:41;;;;;;;;;;;14.40;99.20;;;;;;5102581;28;19915;-64
2023/05/22 00:56:08;;;;;;;;;;;14.60;98.90;;;;;;5091867;28;19996;-63
2023/05/22 00:58:34;;;;;;;;;;;14.60;98.80;;;;;;5092225;28;19908;-67
2023/05/22 01:01:01;;;;;;;;;;;14.70;98.20;;;;;;5092674;28;19991;-66
2023/05/22 01:03:28;;;;;;;;;;;14.80;98.30;;;;;;5100167;28;19961;-65
2023/05/22 01:05:55;;;;;;;;;;;14.90;98.20;;;;;;5112184;28;19915;-66
2023/05/22 01:08:22;;;;;;;;;;;15.10;98.40;;;;;;5112425;28;19912;-66
2023/05/22 01:10:53;;;;;;;;;;;15.10;97.90;;;;;;5112477;28;19962;-65
2023/05/22 01:13:20;;;;;;;;;;;15.20;97.60;;;;;;5100920;28;20641;-64
2023/05/22 01:15:52;;;;;;;;;;;15.30;97.40;;;;;;5111161;28;19920;-66
2023/05/22 01:18:30;;;;;;;;;;;15.30;96.50;;;;;;5103290;28;20357;-66
2023/05/22 01:21:05;;;;;;;;;;;15.40;96.50;;;;;;5093176;28;19908;-63
2023/05/22 01:23:52;;;;;;;;;;;15.50;96.60;;;;;;5096444;28;20362;-67
2023/05/22 01:26:22;;;;;;;;;;;15.60;96.40;;;;;;5092781;28;19913;-66
2023/05/22 01:28:57;;;;;;;;;;;15.70;96.00;;;;;;5102823;28;19919;-65
2023/05/22 01:31:26;;;;;;;;;;;15.70;95.40;;;;;;5111934;28;19919;-66
2023/05/22 01:33:56;;;;;;;;;;;15.80;95.70;;;;;;5102308;28;19983;-67
2023/05/22 01:36:25;;;;;;;;;;;15.90;94.00;;;;;;5104599;28;19970;-65
2023/05/22 01:38:52;;;;;;;;;;;16.10;94.20;;;;;;5098881;28;19912;-64
2023/05/22 01:41:20;;;;;;;;;;;16.20;93.90;;;;;;5093099;28;19920;-67
2023/05/22 01:43:47;;;;;;;;;;;16.30;93.30;;;;;;5102883;28;19915;-66
2023/05/22 01:46:13;;;;;;;;;;;16.40;93.10;;;;;;5110221;28;19908;-66
2023/05/22 01:48:40;;;;;;;;;;;16.50;93.20;;;;;;5096511;28;19924;-66
2023/05/22 01:51:30;;;;;;;;;;;16.70;92.80;;;;;;5093297;28;19912;-66
2023/05/22 01:54:04;;;;;;;;;;;16.80;92.10;;;;;;5071750;28;20380;-65
2023/05/22 01:56:38;;;;;;;;;;;17.00;92.40;;;;;;5109187;28;19998;-67
2023/05/22 01:59:21;;;;;;;;;;;17.20;92.30;;;;;;5101514;28;19912;-67
2023/05/22 02:01:49;;;;;;;;;;;17.30;91.40;;;;;;5103153;28;19908;-65
2023/05/22 02:04:18;;;;;;;;;;;17.30;92.10;;;;;;5111697;28;19916;-67
2023/05/22 02:06:45;;;;;;;;;;;17.40;91.80;;;;;;5112177;28;20264;-66
2023/05/22 02:09:13;;;;;;;;;;;17.30;91.40;;;;;;5111529;28;19973;-65
2023/05/22 02:11:41;;;;;;;;;;;17.30;91.00;;;;;;5113320;28;19935;-65
2023/05/22 02:14:10;;;;;;;;;;;17.30;91.30;;;;;;5099741;28;19908;-66
2023/05/22 02:16:37;;;;;;;;;;;17.40;90.90;;;;;;5091370;28;19909;-67
2023/05/22 02:19:07;;;;;;;;;;;17.30;91.00;;;;;;5101337;28;19908;-65
2023/05/22 02:21:34;;;;;;;;;;;17.20;90.30;;;;;;5105607;28;20174;-64
2023/05/22 02:24:01;;;;;;;;;;;17.10;89.40;;;;;;5092117;28;19920;-67
2023/05/22 02:26:28;;;;;;;;;;;17.00;89.80;;;;;;5074524;28;19912;-67
2023/05/22 02:28:54;;;;;;;;;;;17.10;88.80;;;;;;5107919;28;19912;-65
2023/05/22 02:31:21;;;;;;;;;;;17.10;89.10;;;;;;5109875;28;19957;-67
2023/05/22 02:33:48;;;;;;;;;;;17.10;90.10;;;;;;5105861;27;19911;-65
2023/05/22 02:36:14;;;;;;;;;;;17.20;88.50;;;;;;5120696;27;19954;-66
2023/05/22 02:38:41;;;;;;;;;;;17.20;86.10;;;;;;5115003;28;20403;-67
2023/05/22 02:41:08;;;;;;;;;;;17.30;85.70;;;;;;5088555;28;19927;-66
2023/05/22 02:43:35;;;;;;;;;;;17.40;85.90;;;;;;5114578;28;19922;-66
2023/05/22 02:46:01;;;;;;;;;;;17.50;86.10;;;;;;5105657;28;19916;-67
2023/05/22 02:48:28;;;;;;;;;;;17.80;85.40;;;;;;5112260;28;19908;-67
2023/05/22 02:50:55;;;;;;;;;;;18.30;86.00;;;;;;5115097;28;19994;-67
2023/05/22 02:53:21;;;;;;;;;;;18.70;84.70;;;;;;5114110;28;19939;-65
2023/05/22 02:55:48;;;;;;;;;;;18.90;82.40;;;;;;5114756;28;19914;-67
2023/05/22 02:58:16;;;;;;;;;;;19.20;80.20;;;;;;5114890;28;19952;-67
2023/05/22 03:00:43;;;;;;;;;;;19.60;79.00;;;;;;5115237;28;19912;-67
2023/05/22 03:03:10;;;;;;;;;;;20.60;77.30;;;;;;5112998;28;19908;-67
2023/05/22 03:05:37;;;;;;;;;;;21.60;74.40;;;;;;5114801;28;19918;-67
2023/05/22 03:08:04;;;;;;;;;;;21.80;73.90;;;;;;5114296;28;19912;-66
2023/05/22 03:10:31;;;;;;;;;;;22.00;75.20;;;;;;5114046;28;19908;-66
2023/05/22 03:12:57;;;;;;;;;;;22.90;72.60;;;;;;5110559;28;19909;-67
2023/05/22 03:15:24;;;;;;;;;;;23.20;71.20;;;;;;5094425;28;19908;-66
2023/05/22 03:17:51;;;;;;;;;;;23.40;71.10;;;;;;5094038;28;20014;-66
2023/05/22 03:20:17;;;;;;;;;;;23.10;71.40;;;;;;5095134;28;19912;-66
2023/05/22 03:22:47;;;;;;;;;;;22.70;72.00;;;;;;5094596;28;21323;-67
2023/05/22 03:25:13;;;;;;;;;;;22.50;72.10;;;;;;5100975;28;20002;-66
2023/05/22 03:27:40;;;;;;;;;;;22.30;72.70;;;;;;5100816;28;19999;-66
2023/05/22 03:30:07;;;;;;;;;;;23.00;70.60;;;;;;5114396;28;19908;-67
2023/05/22 03:32:37;;;;;;;;;;;24.40;68.70;;;;;;5114121;28;19912;-67
2023/05/22 03:35:04;;;;;;;;;;;26.00;64.40;;;;;;5108962;28;20363;-66
2023/05/22 03:37:31;;;;;;;;;;;27.60;60.70;;;;;;5113384;28;19919;-67
2023/05/22 03:39:57;;;;;;;;;;;29.00;60.10;;;;;;5114288;28;19908;-67
2023/05/22 03:42:24;;;;;;;;;;;30.70;56.20;;;;;;5111028;28;19930;-67
2023/05/22 03:44:51;;;;;;;;;;;31.40;54.00;;;;;;5113180;28;20061;-66
2023/05/22 03:47:17;;;;;;;;;;;32.00;52.50;;;;;;5109870;28;20003;-67
2023/05/22 03:49:44;;;;;;;;;;;31.80;51.70;;;;;;5110051;27;19912;-67
2023/05/22 03:52:11;;;;;;;;;;;32.10;51.10;;;;;;5095295;28;19908;-68
2023/05/22 03:54:37;;;;;;;;;;;32.40;49.90;;;;;;5107279;28;20356;-67
2023/05/22 03:57:04;;;;;;;;;;;32.90;49.20;;;;;;5113196;28;19911;-67
2023/05/22 03:59:31;;;;;;;;;;;33.10;49.30;;;;;;5103308;28;19919;-66
2023/05/22 04:01:59;;;;;;;;;;;33.80;48.40;;;;;;5106634;28;19912;-67
2023/05/22 04:04:27;;;;;;;;;;;33.90;47.40;;;;;;5112944;28;19933;-67
2023/05/22 04:06:56;;;;;;;;;;;34.00;46.80;;;;;;5112825;28;19912;-66
2023/05/22 04:09:26;;;;;;;;;;;33.20;47.50;;;;;;5113236;28;19908;-66
2023/05/22 04:11:53;;;;;;;;;;;33.50;47.30;;;;;;5113896;28;19914;-67
2023/05/22 04:14:19;;;;;;;;;;;32.20;47.50;;;;;;5106722;28;19927;-66
2023/05/22 04:16:46;;;;;;;;;;;31.20;47.90;;;;;;5092952;28;19965;-67
2023/05/22 04:19:13;;;;;;;;;;;29.70;49.00;;;;;;5094018;28;19907;-67
2023/05/22 04:21:39;;;;;;;;;;;28.10;50.80;;;;;;5113614;28;19908;-66
2023/05/22 04:24:06;;;;;;;;;;;26.80;52.60;;;;;;5106719;28;19923;-67
2023/05/22 04:26:33;;;;;;;;;;;25.80;53.10;;;;;;5093191;28;19912;-66
2023/05/22 04:29:00;;;;;;;;;;;24.80;53.60;;;;;;5102635;28;19916;-66
2023/05/22 04:31:26;;;;;;;;;;;24.00;55.70;;;;;;5121672;27;19912;-66
2023/05/22 04:33:54;;;;;;;;;;;23.30;56.40;;;;;;5112413;28;19968;-67
2023/05/22 04:36:24;;;;;;;;;;;22.80;57.00;;;;;;5104042;28;20280;-66
2023/05/22 04:38:52;;;;;;;;;;;22.40;58.40;;;;;;5092558;28;19916;-66
2023/05/22 04:41:21;;;;;;;;;;;22.00;59.20;;;;;;5092808;28;19979;-66
2023/05/22 04:43:48;;;;;;;;;;;21.50;59.90;;;;;;5108484;28;20007;-66
2023/05/22 04:46:15;;;;;;;;;;;21.20;60.00;;;;;;5112364;28;19912;-66
2023/05/22 04:48:41;;;;;;;;;;;20.90;61.50;;;;;;5112802;28;19931;-65
2023/05/22 04:51:08;;;;;;;;;;;20.70;59.80;;;;;;5113007;28;19997;-66
2023/05/22 04:53:37;;;;;;;;;;;20.50;61.00;;;;;;5112726;28;20006;-66
2023/05/22 04:56:04;;;;;;;;;;;20.40;60.60;;;;;;5097416;28;19912;-67
2023/05/22 04:58:31;;;;;;;;;;;20.40;60.40;;;;;;5112503;28;19911;-67
2023/05/22 05:00:57;;;;;;;;;;;20.40;62.10;;;;;;5112168;28;19950;-65
2023/05/22 05:03:27;;;;;;;;;;;20.30;61.40;;;;;;5111882;28;19908;-67
2023/05/22 05:05:55;;;;;;;;;;;20.40;60.60;;;;;;5106086;28;19916;-66
2023/05/22 05:08:22;;;;;;;;;;;20.40;62.00;;;;;;5111965;28;20018;-67
2023/05/22 05:10:48;;;;;;;;;;;20.40;63.30;;;;;;5112604;28;19939;-67
2023/05/22 05:13:15;;;;;;;;;;;20.50;61.50;;;;;;5101956;28;20010;-67
2023/05/22 05:15:42;;;;;;;;;;;20.70;61.50;;;;;;5099312;28;19916;-67
2023/05/22 05:18:09;;;;;;;;;;;20.90;62.50;;;;;;5090076;28;19940;-66
2023/05/22 05:20:35;;;;;;;;;;;20.80;62.20;;;;;;5107211;28;19919;-66
2023/05/22 05:23:02;;;;;;;;;;;20.90;63.80;;;;;;5095963;28;19922;-66
2023/05/22 05:25:29;;;;;;;;;;;20.90;64.40;;;;;;5111607;28;19915;-66
2023/05/22 05:27:56;;;;;;;;;;;21.00;61.90;;;;;;5111670;28;19908;-66
2023/05/22 05:30:23;;;;;;;;;;;21.00;62.60;;;;;;5111809;28;19911;-66
2023/05/22 05:32:49;;;;;;;;;;;21.10;64.20;;;;;;5111434;28;19912;-66
2023/05/22 05:35:16;;;;;;;;;;;21.20;63.80;;;;;;5107076;28;20377;-66
2023/05/22 05:37:42;;;;;;;;;;;21.40;65.40;;;;;;5092739;28;20261;-66
2023/05/22 05:40:09;;;;;;;;;;;21.50;63.90;;;;;;5091611;28;19920;-66
2023/05/22 05:42:36;;;;;;;;;;;22.00;63.00;;;;;;5097379;28;19923;-65
2023/05/22 05:45:03;;;;;;;;;;;22.40;60.90;;;;;;5112045;28;19915;-66
2023/05/22 05:47:29;;;;;;;;;;;22.80;62.30;;;;;;5109267;28;20476;-65
2023/05/22 05:49:56;;;;;;;;;;;23.00;63.80;;;;;;5111053;28;19904;-66
2023/05/22 05:52:25;;;;;;;;;;;22.90;61.40;;;;;;5108575;28;19954;-66
2023/05/22 05:54:52;;;;;;;;;;;22.80;62.90;;;;;;5105669;28;19920;-67
2023/05/22 05:57:18;;;;;;;;;;;22.90;63.00;;;;;;5110274;28;19908;-66
2023/05/22 05:59:45;;;;;;;;;;;23.30;63.00;;;;;;5111165;28;19987;-66
2023/05/22 06:02:11;;;;;;;;;;;23.50;61.80;;;;;;5111152;28;19915;-67
2023/05/22 06:04:38;;;;;;;;;;;23.80;61.10;;;;;;5111845;28;20381;-66
2023/05/22 06:07:05;;;;;;;;;;;23.80;60.20;;;;;;5114020;28;19919;-65
2023/05/22 06:09:31;;;;;;;;;;;23.80;60.30;;;;;;5114762;28;20423;-65
2023/05/22 06:11:58;;;;;;;;;;;23.90;61.80;;;;;;5112867;28;20020;-64
2023/05/22 06:14:25;;;;;;;;;;;23.80;62.50;;;;;;5114309;28;20589;-65
2023/05/22 06:16:51;;;;;;;;;;;23.30;62.90;;;;;;5114586;28;19912;-64
2023/05/22 06:19:18;;;;;;;;;;;22.80;65.30;;;;;;5113268;28;19907;-65
2023/05/22 06:21:45;;;;;;;;;;;21.90;65.60;;;;;;5113273;28;19912;-64
2023/05/22 06:24:11;;;;;;;;;;;21.30;68.50;;;;;;5114309;28;19916;-65
2023/05/22 06:26:38;;;;;;;;;;;20.80;68.70;;;;;;5110176;28;20376;-64
2023/05/22 06:29:05;;;;;;;;;;;20.30;69.90;;;;;;5110711;28;20413;-65
2023/05/22 06:31:34;;;;;;;;;;;19.70;71.10;;;;;;5113241;28;19968;-66
2023/05/22 06:34:00;;;;;;;;;;;19.10;72.70;;;;;;5114002;28;19908;-65
2023/05/22 06:36:27;;;;;;;;;;;18.70;73.80;;;;;;5110498;28;19912;-65
2023/05/22 06:38:54;;;;;;;;;;;18.40;75.00;;;;;;5111403;28;19919;-65
2023/05/22 06:41:21;;;;;;;;;;;18.10;76.10;;;;;;5114057;28;19924;-64
2023/05/22 06:43:48;;;;;;;;;;;17.90;77.30;;;;;;5113291;28;20276;-64
2023/05/22 06:46:14;;;;;;;;;;;17.80;78.20;;;;;;5114137;28;19908;-64
2023/05/22 06:48:41;;;;;;;;;;;17.60;78.80;;;;;;5113848;28;19907;-64
2023/05/22 06:51:10;;;;;;;;;;;17.40;80.20;;;;;;5112978;28;19931;-64
2023/05/22 06:53:36;;;;;;;;;;;17.30;81.60;;;;;;5113820;28;20002;-65
2023/05/22 06:56:04;;;;;;;;;;;17.10;82.70;;;;;;5111405;28;19954;-66
2023/05/22 06:58:30;;;;;;;;;;;17.00;83.20;;;;;;5114625;28;19908;-66
2023/05/22 07:00:57;;;;;;;;;;;16.90;84.00;;;;;;5114737;28;19960;-65
2023/05/22 07:03:23;;;;;;;;;;;16.70;85.20;;;;;;5111782;28;19918;-64
2023/05/22 07:05:50;;;;;;;;;;;16.60;86.60;;;;;;5111975;28;20304;-64
2023/05/22 07:08:17;;;;;;;;;;;16.50;88.20;;;;;;5113755;28;19908;-66
2023/05/22 07:10:43;;;;;;;;;;;16.30;88.80;;;;;;5112595;28;19915;-65
2023/05/22 07:13:11;;;;;;;;;;;16.20;90.20;;;;;;5113200;28;20356;-64
2023/05/22 07:15:38;;;;;;;;;;;16.10;90.70;;;;;;5112655;28;19914;-65
2023/05/22 07:18:05;;;;;;;;;;;15.90;91.20;;;;;;5112325;28;19908;-67
2023/05/22 07:20:31;;;;;;;;;;;15.80;91.90;;;;;;5113471;28;20002;-63
2023/05/22 07:22:58;;;;;;;;;;;15.70;92.60;;;;;;5113201;28;19933;-65
2023/05/22 07:25:25;;;;;;;;;;;15.60;93.10;;;;;;5112485;28;19942;-64
2023/05/22 07:27:51;;;;;;;;;;;15.50;93.70;;;;;;5112593;28;20328;-66
2023/05/22 07:30:18;;;;;;;;;;;15.50;94.00;;;;;;5113200;28;20473;-66
2023/05/22 07:32:45;;;;;;;;;;;15.30;94.30;;;;;;5112178;28;19998;-66
2023/05/22 07:35:11;;;;;;;;;;;15.30;94.90;;;;;;5112614;28;20007;-67
2023/05/22 07:37:38;;;;;;;;;;;15.20;95.40;;;;;;5113212;28;19936;-66
2023/05/22 07:40:08;;;;;;;;;;;15.20;95.90;;;;;;5113276;28;19908;-67
2023/05/22 07:42:35;;;;;;;;;;;15.00;96.50;;;;;;5112978;28;19912;-67
2023/05/22 07:45:01;;;;;;;;;;;15.00;96.80;;;;;;5103467;28;19915;-66
2023/05/22 07:47:28;;;;;;;;;;;14.80;97.20;;;;;;5111962;28;20395;-65
2023/05/22 07:49:55;;;;;;;;;;;14.80;97.50;;;;;;5103200;28;20401;-66
2023/05/22 07:52:22;;;;;;;;;;;14.70;97.90;;;;;;5096189;28;19916;-67
2023/05/22 07:54:49;;;;;;;;;;;14.60;98.30;;;;;;5113364;28;19908;-65
2023/05/22 07:57:16;;;;;;;;;;;14.60;98.70;;;;;;5113271;28;19911;-66
2023/05/22 07:59:43;;;;;;;;;;;14.50;99.10;;;;;;5113076;28;20412;-65
2023/05/22 08:02:09;;;;;;;;;;;14.40;99.30;;;;;;5113148;28;20360;-66
2023/05/22 08:04:36;;;;;;;;;;;14.40;99.70;;;;;;5110490;28;19919;-67
2023/05/22 08:07:02;;;;;;;;;;;14.40;99.90;;;;;;5112790;28;19934;-65
2023/05/22 08:09:29;;;;;;;;;;;14.30;99.90;;;;;;5095054;28;19998;-66
2023/05/22 08:11:56;;;;;;;;;;;14.20;99.90;;;;;;5112849;28;19908;-63
2023/05/22 08:14:22;;;;;;;;;;;14.20;99.90;;;;;;5091829;28;19965;-68
2023/05/22 08:16:49;;;;;;;;;;;14.10;99.90;;;;;;5113062;28;19964;-65
2023/05/22 08:19:16;;;;;;;;;;;14.00;99.90;;;;;;5112912;28;19919;-66
2023/05/22 08:21:42;;;;;;;;;;;14.00;99.90;;;;;;5108514;28;19951;-64
2023/05/22 08:24:09;;;;;;;;;;;13.90;99.90;;;;;;5108105;28;19919;-66
2023/05/22 08:26:37;;;;;;;;;;;13.80;99.90;;;;;;5111610;28;19938;-66
2023/05/22 08:29:04;;;;;;;;;;;13.80;99.90;;;;;;5095509;28;19965;-67
2023/05/22 08:31:33;;;;;;;;;;;13.70;99.90;;;;;;5092481;28;20266;-67
2023/05/22 08:34:01;;;;;;;;;;;13.70;99.90;;;;;;5108735;28;19961;-68
2023/05/22 08:36:32;;;;;;;;;;;13.70;99.90;;;;;;5111853;28;19954;-66
2023/05/22 08:39:00;;;;;;;;;;;13.60;99.90;;;;;;5111273;28;20019;-67
2023/05/22 08:41:27;;;;;;;;;;;13.60;99.90;;;;;;5096274;28;19920;-66
2023/05/22 08:43:54;;;;;;;;;;;13.60;99.90;;;;;;5107910;28;20436;-67
2023/05/22 08:46:25;;;;;;;;;;;13.50;99.90;;;;;;5112118;28;19922;-63
2023/05/22 08:48:52;;;;;;;;;;;13.50;99.90;;;;;;5109028;28;19916;-65
2023/05/22 08:51:20;;;;;;;;;;;13.50;99.90;;;;;;5111037;28;20384;-67
2023/05/22 08:53:49;;;;;;;;;;;13.50;99.90;;;;;;5111655;28;19908;-67
2023/05/22 08:56:16;;;;;;;;;;;13.40;99.90;;;;;;5111860;28;19991;-66
2023/05/22 08:58:44;;;;;;;;;;;13.30;99.90;;;;;;5111449;28;19912;-65
2023/05/22 09:01:12;;;;;;;;;;;13.30;99.90;;;;;;5111243;28;19933;-66
2023/05/22 09:03:38;;;;;;;;;;;13.20;99.90;;;;;;5110227;28;19904;-66
2023/05/22 09:06:08;;;;;;;;;;;13.20;99.90;;;;;;5111519;28;19990;-65
2023/05/22 09:08:34;;;;;;;;;;;13.20;99.90;;;;;;5106035;28;19916;-67
2023/05/22 09:11:01;;;;;;;;;;;13.10;99.90;;;;;;5096056;28;20315;-68
2023/05/22 09:13:29;;;;;;;;;;;13.00;99.90;;;;;;5110418;28;19911;-64
2023/05/22 09:16:00;;;;;;;;;;;13.00;99.90;;;;;;5112080;28;19983;-65
2023/05/22 09:18:28;;;;;;;;;;;13.00;99.90;;;;;;5112278;28;19908;-67
2023/05/22 09:20:57;;;;;;;;;;;13.00;99.90;;;;;;5111600;28;19912;-65
2023/05/22 09:23:26;;;;;;;;;;;13.00;99.90;;;;;;5111411;28;20011;-67
2023/05/22 09:25:57;;;;;;;;;;;12.90;99.90;;;;;;5111538;28;19939;-66
2023/05/22 09:28:24;;;;;;;;;;;12.90;99.90;;;;;;5111622;28;19908;-64
2023/05/22 09:30:51;;;;;;;;;;;12.80;99.90;;;;;;5111631;28;19914;-66
2023/05/22 09:33:18;;;;;;;;;;;12.80;99.90;;;;;;5111231;28;19908;-66
2023/05/22 09:35:48;;;;;;;;;;;12.80;99.90;;;;;;5110888;28;19915;-65
2023/05/22 09:38:15;;;;;;;;;;;12.70;99.90;;;;;;5111658;28;19908;-66
2023/05/22 09:40:41;;;;;;;;;;;12.70;99.90;;;;;;5096475;28;19924;-64
2023/05/22 09:43:11;;;;;;;;;;;12.70;99.90;;;;;;5096817;28;19916;-65
2023/05/22 09:45:38;;;;;;;;;;;12.70;99.90;;;;;;5095348;28;20372;-66
2023/05/22 09:48:05;;;;;;;;;;;12.60;99.90;;;;;;5100540;28;19968;-67
2023/05/22 09:50:32;;;;;;;;;;;12.60;99.90;;;;;;5116064;28;20280;-66
2023/05/22 09:53:02;;;;;;;;;;;12.50;99.90;;;;;;5115702;28;19908;-65
2023/05/22 09:55:30;;;;;;;;;;;12.50;99.90;;;;;;5116009;28;19908;-66
2023/05/22 09:58:02;;;;;;;;;;;12.50;99.90;;;;;;5115748;28;20010;-66
2023/05/22 10:00:29;;;;;;;;;;;12.50;99.90;;;;;;5115811;28;19911;-65
2023/05/22 10:03:02;;;;;;;;;;;12.50;99.90;;;;;;5115047;28;19908;-67
2023/05/22 10:05:32;;;;;;;;;;;12.50;99.90;;;;;;5113083;28;19915;-65
2023/05/22 10:08:04;;;;;;;;;;;12.50;99.90;;;;;;5115025;28;19961;-67
2023/05/22 10:10:32;;;;;;;;;;;12.40;99.90;;;;;;5115190;28;19908;-68
2023/05/22 10:13:05;;;;;;;;;;;12.40;99.90;;;;;;5114885;28;19931;-68
2023/05/22 10:15:32;;;;;;;;;;;12.30;99.90;;;;;;5114965;28;19908;-67
2023/05/22 10:17:59;;;;;;;;;;;12.30;99.90;;;;;;5113253;28;19912;-67
2023/05/22 10:20:26;;;;;;;;;;;12.30;99.90;;;;;;5115040;28;19912;-66
2023/05/22 10:22:53;;;;;;;;;;;12.30;99.90;;;;;;5115451;28;20381;-67
2023/05/22 10:25:24;;;;;;;;;;;12.20;99.90;;;;;;5102517;28;19925;-66
2023/05/22 10:27:52;;;;;;;;;;;12.10;99.90;;;;;;5105136;28;19965;-66
2023/05/22 10:30:27;;;;;;;;;;;12.10;99.90;;;;;;5102863;28;19912;-66
2023/05/22 10:33:02;;;;;;;;;;;12.10;99.90;;;;;;5114968;28;20369;-66
2023/05/22 10:35:28;;;;;;;;;;;12.00;99.90;;;;;;5110912;28;20363;-65
2023/05/22 10:38:03;;;;;;;;;;;12.00;99.90;;;;;;5094735;28;20598;-66
2023/05/22 10:40:31;;;;;;;;;;;12.00;99.90;;;;;;5109374;28;19920;-64
2023/05/22 10:43:05;;;;;;;;;;;11.90;99.90;;;;;;5096366;28;19915;-64
2023/05/22 10:45:31;;;;;;;;;;;11.90;99.90;;;;;;5112164;28;19919;-65
2023/05/22 10:48:08;;;;;;;;;;;11.90;99.90;;;;;;5105037;28;20265;-65
2023/05/22 10:50:35;;;;;;;;;;;11.90;99.90;;;;;;5114487;28;20015;-67
2023/05/22 10:53:31;;;;;;;;;;;11.80;99.90;;;;;;5113085;28;20321;-65
2023/05/22 10:56:02;;;;;;;;;;;11.80;99.90;;;;;;5101338;28;19947;-67
2023/05/22 10:58:30;;;;;;;;;;;11.80;99.90;;;;;;5114368;28;20268;-66
2023/05/22 11:01:16;;;;;;;;;;;11.80;99.90;;;;;;5096458;28;19912;-67
2023/05/22 11:03:53;;;;;;;;;;;11.70;99.90;;;;;;5095831;28;19914;-66
2023/05/22 11:06:32;;;;;;;;;;;11.70;99.90;;;;;;5114470;28;20330;-66
2023/05/22 11:08:59;;;;;;;;;;;11.70;99.90;;;;;;5096696;28;19912;-69
2023/05/22 11:11:26;;;;;;;;;;;11.70;99.90;;;;;;5113716;28;20382;-69
2023/05/22 11:13:56;;;;;;;;;;;11.70;99.90;;;;;;5112997;28;19912;-67
2023/05/22 11:16:23;;;;;;;;;;;11.60;99.90;;;;;;5113132;28;19908;-66
2023/05/22 11:18:59;;;;;;;;;;;11.60;99.90;;;;;;5114807;28;20000;-66
2023/05/22 11:21:28;;;;;;;;;;;11.60;99.90;;;;;;5114077;28;19908;-64
2023/05/22 11:24:01;;;;;;;;;;;11.50;99.90;;;;;;5114819;28;20002;-69
2023/05/22 11:26:28;;;;;;;;;;;11.40;99.90;;;;;;5114680;28;19912;-64
2023/05/22 11:28:55;;;;;;;;;;;11.50;99.90;;;;;;5114084;28;20007;-67
2023/05/22 11:31:22;;;;;;;;;;;11.40;99.90;;;;;;5095571;28;19908;-65
2023/05/22 11:33:49;;;;;;;;;;;11.40;99.90;;;;;;5096353;28;20090;-64
2023/05/22 11:36:16;;;;;;;;;;;11.40;99.90;;;;;;5094465;28;19908;-65
2023/05/22 11:38:43;;;;;;;;;;;11.40;99.90;;;;;;5075396;28;19908;-67
2023/05/22 11:41:11;;;;;;;;;;;11.40;99.90;;;;;;5075631;28;19920;-65
2023/05/22 11:43:38;;;;;;;;;;;11.40;99.90;;;;;;5093900;28;19914;-63
2023/05/22 11:46:06;;;;;;;;;;;11.30;99.90;;;;;;5075907;28;19912;-63
2023/05/22 11:48:35;;;;;;;;;;;11.30;99.90;;;;;;5106642;28;20010;-68
2023/05/22 11:51:02;;;;;;;;;;;11.30;99.90;;;;;;5114462;28;19907;-68
2023/05/22 11:53:31;;;;;;;;;;;11.30;99.90;;;;;;5077853;28;20007;-64
2023/05/22 11:56:05;;;;;;;;;;;11.20;99.90;;;;;;5113622;28;19951;-63
2023/05/22 11:58:32;;;;;;;;;;;11.20;99.90;;;;;;5113875;28;20010;-64
2023/05/22 12:01:00;;;;;;;;;;;11.30;99.90;;;;;;5114189;28;19912;-62
2023/05/22 12:03:28;;;;;;;;;;;11.20;99.90;;;;;;5113307;28;19916;-65
2023/05/22 12:05:55;;;;;;;;;;;11.20;99.90;;;;;;5112700;28;19931;-63
2023/05/22 12:08:22;;;;;;;;;;;11.10;99.90;;;;;;5095429;28;19912;-68
2023/05/22 12:10:50;;;;;;;;;;;11.10;99.90;;;;;;5113899;28;19954;-64
2023/05/22 12:13:23;;;;;;;;;;;11.10;99.90;;;;;;5095710;28;19932;-65
2023/05/22 12:15:52;;;;;;;;;;;11.00;99.90;;;;;;5113778;28;19964;-63
2023/05/22 12:18:18;;;;;;;;;;;11.10;99.90;;;;;;5113811;28;19935;-65
2023/05/22 12:20:45;;;;;;;;;;;11.00;99.90;;;;;;5095424;28;20364;-64
2023/05/22 12:23:22;;;;;;;;;;;11.00;99.90;;;;;;5113221;28;19907;-65
2023/05/22 12:25:55;;;;;;;;;;;10.90;99.90;;;;;;5074898;28;20026;-65
2023/05/22 12:28:22;;;;;;;;;;;10.90;99.90;;;;;;5074903;28;20349;-66
2023/05/22 12:30:53;;;;;;;;;;;10.80;99.90;;;;;;5093175;28;20268;-64
2023/05/22 12:33:20;;;;;;;;;;;10.80;99.90;;;;;;5094055;28;19958;-67
2023/05/22 12:35:51;;;;;;;;;;;10.80;99.90;;;;;;5074813;28;19912;-63
2023/05/22 12:38:21;;;;;;;;;;;10.80;99.90;;;;;;5074901;28;20284;-66
2023/05/22 12:40:48;;;;;;;;;;;10.80;99.90;;;;;;5071755;28;19920;-64
2023/05/22 12:43:15;;;;;;;;;;;10.70;99.90;;;;;;5087133;28;19912;-65
2023/05/22 12:45:42;;;;;;;;;;;10.70;99.90;;;;;;5092028;28;19916;-65
2023/05/22 12:48:09;;;;;;;;;;;10.70;99.90;;;;;;5093796;28;19915;-64
2023/05/22 12:50:35;;;;;;;;;;;10.70;99.90;;;;;;5092520;28;19908;-66
2023/05/22 12:53:02;;;;;;;;;;;10.60;99.90;;;;;;5091829;28;20322;-66
2023/05/22 12:55:29;;;;;;;;;;;10.70;99.90;;;;;;5093172;28;19907;-65
2023/05/22 12:57:56;;;;;;;;;;;10.60;99.90;;;;;;5093001;28;19908;-64
2023/05/22 13:00:23;;;;;;;;;;;10.60;99.90;;;;;;5085784;28;19912;-65
2023/05/22 13:02:50;;;;;;;;;;;10.50;99.90;;;;;;5086899;28;19916;-65
2023/05/22 13:05:17;;;;;;;;;;;10.50;99.90;;;;;;5092836;28;19939;-66
2023/05/22 13:07:43;;;;;;;;;;;10.50;99.90;;;;;;5092843;28;19915;-65
2023/05/22 13:10:14;;;;;;;;;;;10.50;99.90;;;;;;5093166;28;20269;-67
2023/05/22 13:12:46;;;;;;;;;;;10.60;99.90;;;;;;5087550;28;19999;-65
2023/05/22 13:15:14;;;;;;;;;;;10.60;99.90;;;;;;5091923;28;19937;-66
2023/05/22 13:17:40;;;;;;;;;;;10.50;99.90;;;;;;5092236;28;19940;-66
2023/05/22 13:20:07;;;;;;;;;;;10.50;99.90;;;;;;5073045;28;19967;-65
2023/05/22 13:22:34;;;;;;;;;;;10.50;99.90;;;;;;5072452;28;19930;-64
2023/05/22 13:25:01;;;;;;;;;;;10.50;99.90;;;;;;5072525;28;19916;-66
2023/05/22 13:27:28;;;;;;;;;;;10.50;99.90;;;;;;5070945;28;19908;-66
2023/05/22 13:29:54;;;;;;;;;;;10.50;99.90;;;;;;5071290;28;19908;-64
2023/05/22 13:32:21;;;;;;;;;;;10.50;99.90;;;;;;5071163;28;19938;-66
2023/05/22 13:34:48;;;;;;;;;;;10.50;99.90;;;;;;5078179;28;19999;-65
2023/05/22 13:37:15;;;;;;;;;;;10.40;99.90;;;;;;5092526;28;20376;-68
2023/05/22 13:39:41;;;;;;;;;;;10.40;99.90;;;;;;5071287;28;19909;-67
2023/05/22 13:42:08;;;;;;;;;;;10.40;99.90;;;;;;5070917;28;19927;-67
2023/05/22 13:44:34;;;;;;;;;;;10.40;99.90;;;;;;5070995;28;19924;-68
2023/05/22 13:47:01;;;;;;;;;;;10.40;99.90;;;;;;5071968;28;19908;-65
2023/05/22 13:49:28;;;;;;;;;;;10.40;99.90;;;;;;5084890;28;19912;-63
2023/05/22 13:51:54;;;;;;;;;;;10.30;99.90;;;;;;5078065;28;19912;-65
2023/05/22 13:54:21;;;;;;;;;;;10.30;99.90;;;;;;5072086;28;19915;-63
2023/05/22 13:56:47;;;;;;;;;;;10.30;99.90;;;;;;5072124;28;19954;-65
2023/05/22 13:59:14;;;;;;;;;;;10.30;99.90;;;;;;5070375;28;20369;-64
2023/05/22 14:01:41;;;;;;;;;;;10.20;99.90;;;;;;5070585;28;20353;-66
2023/05/22 14:04:07;;;;;;;;;;;10.20;99.90;;;;;;5069970;28;20397;-67
2023/05/22 14:06:34;;;;;;;;;;;10.20;99.90;;;;;;5071562;28;19915;-67
2023/05/22 14:09:01;;;;;;;;;;;10.20;99.90;;;;;;5070461;28;19916;-66
2023/05/22 14:11:28;;;;;;;;;;;10.20;99.90;;;;;;5070309;28;19931;-66
2023/05/22 14:13:54;;;;;;;;;;;10.10;99.90;;;;;;5071354;28;20021;-66
2023/05/22 14:16:21;;;;;;;;;;;10.10;99.90;;;;;;5071984;28;20005;-64
2023/05/22 14:18:48;;;;;;;;;;;10.00;99.90;;;;;;5071856;28;20013;-65
2023/05/22 14:21:15;;;;;;;;;;;10.00;99.90;;;;;;5072046;28;19978;-63